createdAt,value
2018-02-22T00:01:52.222Z,-0.90
2018-02-22T00:04:22.381Z,-1.00
2018-02-22T00:06:53.198Z,-0.90
2018-02-22T00:09:24.603Z,-0.90
2018-02-22T00:11:55.109Z,-1.00
2018-02-22T00:14:25.271Z,-1.00
2018-02-22T00:16:55.804Z,-0.90
2018-02-22T00:19:26.267Z,-1.00
2018-02-22T00:21:56.762Z,-1.00
2018-02-22T00:24:27.225Z,-1.00
2018-02-22T00:26:58.141Z,-1.10
2018-02-22T00:29:28.691Z,-1.10
2018-02-22T00:31:59.608Z,-1.20
2018-02-22T00:34:30.301Z,-1.20
2018-02-22T00:37:00.898Z,-1.20
2018-02-22T00:39:31.299Z,-1.20
2018-02-22T00:42:01.743Z,-1.20
2018-02-22T00:44:32.128Z,-1.20
2018-02-22T00:47:02.597Z,-1.30
2018-02-22T00:49:33.024Z,-1.30
2018-02-22T00:52:04.317Z,-1.30
2018-02-22T00:54:34.808Z,-1.40
2018-02-22T00:57:05.228Z,-1.40
2018-02-22T00:59:35.445Z,-1.40
2018-02-22T01:02:05.887Z,-1.50
2018-02-22T01:04:36.279Z,-1.50
2018-02-22T01:07:06.213Z,-1.50
2018-02-22T01:09:36.617Z,-1.50
2018-02-22T01:12:07.048Z,-1.60
2018-02-22T01:14:37.406Z,-1.60
2018-02-22T01:17:07.931Z,-1.60
2018-02-22T01:19:38.945Z,-1.70
2018-02-22T01:22:09.482Z,-1.70
2018-02-22T01:24:39.894Z,-1.60
2018-02-22T01:27:10.454Z,-1.60
2018-02-22T01:29:40.876Z,-1.50
2018-02-22T01:32:11.335Z,-1.50
2018-02-22T01:34:41.820Z,-1.50
2018-02-22T01:37:12.619Z,-1.40
2018-02-22T01:39:43.062Z,-1.40
2018-02-22T01:42:13.558Z,-1.40
2018-02-22T01:44:43.939Z,-1.40
2018-02-22T01:47:14.495Z,-1.40
2018-02-22T01:49:44.857Z,-1.40
2018-02-22T01:52:15.308Z,-1.40
2018-02-22T01:54:45.403Z,-1.40
2018-02-22T01:57:15.844Z,-1.40
2018-02-22T01:59:46.255Z,-1.40
2018-02-22T02:02:16.866Z,-1.40
2018-02-22T02:04:47.333Z,-1.40
2018-02-22T02:07:17.915Z,-1.40
2018-02-22T02:09:48.455Z,-1.40
2018-02-22T02:12:19.278Z,-1.40
2018-02-22T02:14:49.458Z,-1.40
2018-02-22T02:17:19.582Z,-1.50
2018-02-22T02:19:49.441Z,-1.50
2018-02-22T02:22:20.175Z,-1.60
2018-02-22T02:24:50.438Z,-1.60
2018-02-22T02:27:20.570Z,-1.60
2018-02-22T02:29:50.930Z,-1.70
2018-02-22T02:32:21.288Z,-1.70
2018-02-22T02:34:51.712Z,-1.70
2018-02-22T02:37:22.528Z,-1.80
2018-02-22T02:39:52.964Z,-1.80
2018-02-22T02:42:23.631Z,-1.80
2018-02-22T02:44:54.050Z,-1.90
2018-02-22T02:47:24.628Z,-1.90
2018-02-22T02:49:55.116Z,-2.00
2018-02-22T02:52:25.415Z,-2.00
2018-02-22T02:54:55.652Z,-2.10
2018-02-22T02:57:25.891Z,-2.10
2018-02-22T02:59:56.321Z,-2.10
2018-02-22T03:02:27.197Z,-2.20
2018-02-22T03:04:57.781Z,-2.20
2018-02-22T03:07:28.156Z,-2.20
2018-02-22T03:09:58.519Z,-2.30
2018-02-22T03:12:28.739Z,-2.30
2018-02-22T03:14:59.226Z,-2.30
2018-02-22T03:17:30.774Z,-2.40
2018-02-22T03:20:01.227Z,-2.40
2018-02-22T03:22:31.784Z,-2.40
2018-02-22T03:25:02.010Z,-2.40
2018-02-22T03:27:35.286Z,-2.40
2018-02-22T03:30:05.521Z,-2.40
2018-02-22T03:32:36.105Z,-2.40
2018-02-22T03:35:06.544Z,-2.50
2018-02-22T03:37:36.991Z,-2.50
2018-02-22T03:40:07.441Z,-2.50
2018-02-22T03:42:38.086Z,-2.60
2018-02-22T03:45:08.518Z,-2.60
2018-02-22T03:47:39.772Z,-2.60
2018-02-22T03:50:10.137Z,-2.60
2018-02-22T03:52:40.540Z,-2.60
2018-02-22T03:55:10.976Z,-2.70
2018-02-22T03:57:41.548Z,-2.70
2018-02-22T04:00:11.934Z,-2.70
2018-02-22T04:02:42.880Z,-2.70
2018-02-22T04:05:13.259Z,-2.60
2018-02-22T04:07:43.690Z,-2.50
2018-02-22T04:10:14.642Z,-2.60
2018-02-22T04:12:46.261Z,-2.70
2018-02-22T04:15:16.647Z,-2.70
2018-02-22T04:17:47.473Z,-2.70
2018-02-22T04:20:17.693Z,-2.70
2018-02-22T04:22:48.131Z,-2.80
2018-02-22T04:25:18.618Z,-2.80
2018-02-22T04:27:49.384Z,-2.80
2018-02-22T04:30:19.819Z,-2.80
2018-02-22T04:32:50.262Z,-2.80
2018-02-22T04:35:20.655Z,-2.90
2018-02-22T04:37:51.094Z,-2.90
2018-02-22T04:40:21.431Z,-2.90
2018-02-22T04:42:51.829Z,-2.90
2018-02-22T04:45:21.941Z,-2.90
2018-02-22T04:47:52.773Z,-2.90
2018-02-22T04:50:23.212Z,-2.90
2018-02-22T04:52:53.628Z,-2.90
2018-02-22T04:55:24.045Z,-2.90
2018-02-22T04:57:54.083Z,-2.90
2018-02-22T05:00:24.593Z,-2.90
2018-02-22T05:02:55.065Z,-2.90
2018-02-22T05:05:25.480Z,-2.90
2018-02-22T05:07:55.931Z,-3.00
2018-02-22T05:10:26.560Z,-3.00
2018-02-22T05:12:57.060Z,-3.00
2018-02-22T05:15:28.228Z,-3.00
2018-02-22T05:17:58.643Z,-3.10
2018-02-22T05:20:29.070Z,-3.10
2018-02-22T05:22:59.851Z,-3.10
2018-02-22T05:25:30.330Z,-3.10
2018-02-22T05:28:00.606Z,-3.10
2018-02-22T05:30:30.876Z,-3.20
2018-02-22T05:33:01.376Z,-3.20
2018-02-22T05:35:31.894Z,-3.20
2018-02-22T05:38:02.646Z,-3.20
2018-02-22T05:40:33.083Z,-3.20
2018-02-22T05:43:03.637Z,-3.20
2018-02-22T05:45:34.105Z,-3.20
2018-02-22T05:48:04.637Z,-3.20
2018-02-22T05:50:34.976Z,-3.20
2018-02-22T05:53:05.447Z,-3.20
2018-02-22T05:55:35.618Z,-3.20
2018-02-22T05:58:07.677Z,-3.30
2018-02-22T06:00:38.063Z,-3.30
2018-02-22T06:03:08.489Z,-3.20
2018-02-22T06:05:38.885Z,-3.20
2018-02-22T06:08:09.372Z,-3.20
2018-02-22T06:10:39.723Z,-3.20
2018-02-22T06:13:10.799Z,-3.20
2018-02-22T06:15:40.888Z,-3.20
2018-02-22T06:18:12.096Z,-3.10
2018-02-22T06:20:42.544Z,-3.20
2018-02-22T06:23:13.375Z,-3.00
2018-02-22T06:25:43.937Z,-2.90
2018-02-22T06:28:14.364Z,-2.60
2018-02-22T06:30:44.814Z,-2.40
2018-02-22T06:33:15.104Z,-2.10
2018-02-22T06:35:45.532Z,-1.80
2018-02-22T06:38:15.996Z,-1.60
2018-02-22T06:40:46.489Z,-1.50
2018-02-22T06:43:17.050Z,-1.70
2018-02-22T06:45:47.555Z,-1.90
2018-02-22T06:48:17.978Z,-2.00
2018-02-22T06:50:48.513Z,-2.10
2018-02-22T06:53:18.861Z,-2.20
2018-02-22T06:55:49.366Z,-2.20
2018-02-22T06:58:19.624Z,-1.90
2018-02-22T07:00:50.055Z,-1.30
2018-02-22T07:03:20.416Z,-0.70
2018-02-22T07:05:50.797Z,-0.10
2018-02-22T07:08:21.202Z,0.60
2018-02-22T07:10:51.452Z,1.30
2018-02-22T07:13:21.907Z,1.80
2018-02-22T07:15:52.252Z,2.40
2018-02-22T07:18:22.625Z,2.90
2018-02-22T07:20:53.028Z,3.50
2018-02-22T07:23:23.300Z,3.80
2018-02-22T07:25:53.766Z,4.10
2018-02-22T07:28:24.199Z,4.20
2018-02-22T07:30:54.612Z,4.30
2018-02-22T07:33:25.132Z,4.80
2018-02-22T07:35:55.416Z,4.80
2018-02-22T07:38:25.768Z,4.80
2018-02-22T07:40:56.361Z,5.30
2018-02-22T07:43:26.936Z,5.70
2018-02-22T07:45:57.413Z,5.70
2018-02-22T07:48:27.376Z,5.80
2018-02-22T07:50:57.812Z,6.00
2018-02-22T07:53:28.303Z,6.00
2018-02-22T07:55:59.429Z,6.20
2018-02-22T07:58:29.882Z,6.10
2018-02-22T08:01:00.164Z,6.40
2018-02-22T08:03:30.569Z,6.10
2018-02-22T08:06:01.702Z,5.60
2018-02-22T08:08:31.995Z,5.50
2018-02-22T08:11:02.769Z,5.60
2018-02-22T08:13:33.233Z,5.50
2018-02-22T08:16:03.539Z,5.70
2018-02-22T08:18:33.964Z,6.10
2018-02-22T08:21:04.248Z,6.40
2018-02-22T08:23:34.694Z,6.70
2018-02-22T08:26:04.686Z,6.80
2018-02-22T08:28:35.135Z,6.90
2018-02-22T08:31:05.595Z,7.40
2018-02-22T08:33:35.897Z,7.70
2018-02-22T08:36:06.510Z,7.50
2018-02-22T08:38:36.910Z,7.50
2018-02-22T08:41:07.165Z,7.90
2018-02-22T08:43:37.551Z,8.10
2018-02-22T08:46:08.073Z,8.20
2018-02-22T08:48:39.141Z,9.00
2018-02-22T08:51:09.725Z,8.90
2018-02-22T08:53:40.141Z,8.80
2018-02-22T08:56:10.438Z,9.00
2018-02-22T08:58:40.644Z,9.30
2018-02-22T09:01:10.758Z,8.90
2018-02-22T09:03:41.187Z,9.30
2018-02-22T09:06:11.731Z,9.50
2018-02-22T09:08:42.036Z,9.50
2018-02-22T09:11:12.464Z,10.00
2018-02-22T09:13:42.779Z,10.00
2018-02-22T09:16:13.229Z,10.00
2018-02-22T09:18:43.646Z,10.00
2018-02-22T09:21:13.956Z,9.90
2018-02-22T09:23:44.318Z,10.10
2018-02-22T09:26:14.729Z,10.20
2018-02-22T09:28:45.145Z,10.90
2018-02-22T09:31:15.425Z,11.10
2018-02-22T09:33:45.837Z,11.40
2018-02-22T09:36:16.206Z,11.40
2018-02-22T09:38:46.674Z,11.40
2018-02-22T09:41:17.179Z,11.60
2018-02-22T09:43:47.521Z,11.80
2018-02-22T09:46:18.046Z,11.80
2018-02-22T09:48:48.408Z,11.60
2018-02-22T09:51:18.727Z,11.30
2018-02-22T09:53:49.302Z,11.40
2018-02-22T09:56:19.674Z,11.60
2018-02-22T09:58:50.105Z,11.00
2018-02-22T10:01:20.585Z,10.30
2018-02-22T10:03:50.797Z,11.00
2018-02-22T10:06:20.940Z,10.80
2018-02-22T10:08:51.353Z,10.50
2018-02-22T10:11:22.030Z,10.00
2018-02-22T10:13:52.448Z,9.90
2018-02-22T10:16:22.952Z,10.40
2018-02-22T10:18:53.420Z,11.30
2018-02-22T10:21:24.017Z,11.90
2018-02-22T10:23:54.606Z,12.30
2018-02-22T10:26:25.256Z,12.10
2018-02-22T10:28:55.748Z,11.80
2018-02-22T10:31:26.203Z,11.10
2018-02-22T10:33:57.347Z,9.50
2018-02-22T10:36:27.941Z,9.40
2018-02-22T10:38:58.455Z,9.20
2018-02-22T10:41:28.867Z,9.60
2018-02-22T10:43:59.308Z,10.40
2018-02-22T10:46:30.980Z,10.40
2018-02-22T10:49:01.609Z,10.40
2018-02-22T10:51:32.789Z,10.60
2018-02-22T10:54:03.107Z,10.60
2018-02-22T10:56:34.358Z,11.10
2018-02-22T10:59:04.804Z,11.00
2018-02-22T11:01:40.791Z,11.10
2018-02-22T11:04:11.624Z,10.90
2018-02-22T11:06:41.987Z,10.50
2018-02-22T11:09:12.446Z,10.30
2018-02-22T11:11:43.765Z,10.00
2018-02-22T11:14:15.869Z,9.70
2018-02-22T11:16:46.275Z,9.70
2018-02-22T11:19:16.683Z,9.30
2018-02-22T11:21:47.163Z,9.40
2018-02-22T11:24:17.636Z,9.00
2018-02-22T11:26:48.002Z,8.60
2018-02-22T11:29:18.398Z,8.20
2018-02-22T11:31:49.190Z,7.60
2018-02-22T11:34:19.653Z,7.40
2018-02-22T11:36:50.082Z,7.20
2018-02-22T11:39:20.380Z,7.50
2018-02-22T11:41:50.783Z,7.40
2018-02-22T11:44:21.165Z,8.00
2018-02-22T11:46:51.437Z,9.20
2018-02-22T11:49:21.783Z,9.60
2018-02-22T11:51:52.038Z,10.50
2018-02-22T11:54:22.600Z,11.00
2018-02-22T11:56:53.103Z,11.00
2018-02-22T11:59:23.843Z,9.90
2018-02-22T12:01:54.259Z,8.40
2018-02-22T14:32:23.822Z,3.50
2018-02-22T14:34:54.335Z,3.40
2018-02-22T14:37:24.816Z,3.30
2018-02-22T14:39:55.089Z,3.10
2018-02-22T14:42:26.857Z,3.00
2018-02-22T14:44:57.308Z,2.90
2018-02-22T14:47:27.944Z,2.80
2018-02-22T14:49:59.215Z,2.60
2018-02-22T14:52:29.709Z,2.60
2018-02-22T14:55:00.791Z,2.60
2018-02-22T14:57:33.205Z,2.60
2018-02-22T15:00:05.225Z,2.50
2018-02-22T15:02:38.517Z,2.50
2018-02-22T15:05:08.985Z,2.50
2018-02-22T15:07:39.475Z,2.50
2018-02-22T15:10:10.004Z,2.40
2018-02-22T15:12:40.495Z,2.40
2018-02-22T15:15:11.044Z,2.30
2018-02-22T15:17:43.662Z,2.30
2018-02-22T15:20:15.088Z,2.30
2018-02-22T15:22:45.285Z,2.20
2018-02-22T15:25:15.493Z,2.20
2018-02-22T15:27:46.096Z,2.10
2018-02-22T15:30:16.458Z,2.00
2018-02-22T15:32:47.296Z,2.00
2018-02-22T15:35:17.401Z,0.70
2018-02-22T15:37:48.028Z,2.00
2018-02-22T15:40:19.339Z,2.00
2018-02-22T15:42:49.800Z,1.90
2018-02-22T15:45:20.246Z,2.00
2018-02-22T15:47:50.757Z,2.00
2018-02-22T15:50:21.047Z,2.00
2018-02-22T15:52:51.094Z,1.90
2018-02-22T15:55:24.240Z,1.90
2018-02-22T15:57:56.774Z,1.80
2018-02-22T16:00:27.418Z,1.80
2018-02-22T16:02:58.135Z,1.80
2018-02-22T16:05:29.073Z,1.70
2018-02-22T16:08:00.336Z,1.60
2018-02-22T16:10:30.580Z,1.60
2018-02-22T16:13:00.669Z,1.60
2018-02-22T16:15:31.304Z,1.60
2018-02-22T16:18:01.879Z,1.60
2018-02-22T16:20:32.571Z,1.50
2018-02-22T16:23:03.487Z,1.40
2018-02-22T16:25:34.012Z,1.50
2018-02-22T16:28:04.416Z,1.40
2018-02-22T16:30:35.943Z,1.40
2018-02-22T16:33:06.931Z,1.30
2018-02-22T16:35:37.074Z,1.20
2018-02-22T16:38:07.588Z,1.20
2018-02-22T16:40:37.873Z,1.20
2018-02-22T16:43:09.275Z,1.20
2018-02-22T16:45:39.641Z,1.10
2018-02-22T16:48:10.268Z,1.10
2018-02-22T16:50:42.602Z,1.00
2018-02-22T16:53:14.208Z,1.00
2018-02-22T16:55:44.708Z,1.10
2018-02-22T16:58:15.440Z,1.10
2018-02-22T17:00:47.923Z,1.00
2018-02-22T17:03:21.008Z,0.90
2018-02-22T17:05:53.915Z,0.90
2018-02-22T17:08:24.394Z,0.80
2018-02-22T17:10:54.895Z,0.80
2018-02-22T17:13:26.098Z,0.80
2018-02-22T17:15:57.237Z,0.80
2018-02-22T17:18:27.428Z,0.70
2018-02-22T17:20:57.949Z,0.70
2018-02-22T17:23:28.799Z,0.70
2018-02-22T17:26:04.898Z,0.70
2018-02-22T17:28:40.846Z,0.70
2018-02-22T17:31:17.788Z,0.70
2018-02-22T17:33:48.250Z,0.70
2018-02-22T17:36:19.084Z,0.70
2018-02-22T17:39:00.435Z,0.70
2018-02-22T17:41:30.637Z,0.70
2018-02-22T17:44:00.896Z,0.70
2018-02-22T17:46:31.154Z,0.70
2018-02-22T17:49:01.549Z,0.80
2018-02-22T17:51:32.754Z,0.80
2018-02-22T17:54:03.210Z,0.80
2018-02-22T17:56:33.477Z,0.80
2018-02-22T17:59:03.530Z,0.80
2018-02-22T18:01:33.750Z,0.80
2018-02-22T18:04:04.984Z,0.70
2018-02-22T18:06:35.229Z,0.70
2018-02-22T18:09:05.083Z,0.70
2018-02-22T18:11:35.761Z,0.70
2018-02-22T18:14:06.488Z,0.70
2018-02-22T18:16:36.390Z,0.60
2018-02-22T18:19:06.862Z,0.70
2018-02-22T18:21:37.549Z,0.70
2018-02-22T18:24:07.972Z,0.60
2018-02-22T18:26:38.881Z,0.60
2018-02-22T18:29:10.058Z,0.70
2018-02-22T18:31:40.303Z,0.70
2018-02-22T18:34:10.695Z,0.60
2018-02-22T18:36:40.956Z,0.60
2018-02-22T18:39:17.234Z,0.50
2018-02-22T18:41:53.672Z,0.50
2018-02-22T18:44:30.078Z,0.50
2018-02-22T18:47:01.287Z,0.40
2018-02-22T18:49:31.275Z,0.40
2018-02-22T18:52:01.817Z,0.40
2018-02-22T18:54:32.302Z,0.50
2018-02-22T18:57:03.544Z,0.40
2018-02-22T18:59:34.027Z,0.40
2018-02-22T19:02:04.388Z,0.40
2018-02-22T19:04:34.386Z,0.40
2018-02-22T19:07:04.794Z,0.40
2018-02-22T19:09:35.221Z,0.40
2018-02-22T19:12:05.684Z,0.50
2018-02-22T19:14:36.175Z,0.40
2018-02-22T19:17:06.275Z,0.40
2018-02-22T19:19:36.750Z,0.40
2018-02-22T19:22:07.214Z,0.30
2018-02-22T19:24:38.304Z,0.10
2018-02-22T19:27:08.729Z,0.10
2018-02-22T19:29:39.957Z,0.00
2018-02-22T19:32:10.642Z,0.00
2018-02-22T19:34:41.299Z,0.00
2018-02-22T19:37:11.760Z,-0.10
2018-02-22T19:39:41.923Z,0.00
2018-02-22T19:42:12.364Z,0.00
2018-02-22T19:44:43.790Z,0.20
2018-02-22T19:47:14.193Z,0.10
2018-02-22T19:49:44.757Z,0.20
2018-02-22T19:52:15.519Z,0.10
2018-02-22T19:54:46.020Z,0.10
2018-02-22T19:57:17.470Z,0.00
2018-02-22T19:59:47.876Z,0.00
2018-02-22T20:02:19.111Z,0.00
2018-02-22T20:04:49.770Z,0.00
2018-02-22T20:07:20.220Z,-0.10
2018-02-22T20:09:50.625Z,0.00
2018-02-22T20:12:21.263Z,0.00
2018-02-22T20:14:51.690Z,0.00
2018-02-22T20:17:21.782Z,0.00
2018-02-22T20:19:53.305Z,0.00
2018-02-22T20:22:24.421Z,0.00
2018-02-22T20:24:54.751Z,0.00
2018-02-22T20:27:26.075Z,0.00
2018-02-22T20:29:56.352Z,0.00
2018-02-22T20:32:26.791Z,0.00
2018-02-22T20:34:57.154Z,0.00
2018-02-22T20:37:27.782Z,0.00
2018-02-22T20:39:58.223Z,0.00
2018-02-22T20:42:28.559Z,0.10
2018-02-22T20:44:58.771Z,0.20
2018-02-22T20:47:29.296Z,0.20
2018-02-22T20:49:59.246Z,0.20
2018-02-22T20:52:29.990Z,0.20
2018-02-22T20:55:01.094Z,0.10
2018-02-22T20:57:31.228Z,0.10
2018-02-22T21:00:03.337Z,0.10
2018-02-22T21:02:34.328Z,0.00
2018-02-22T21:05:04.524Z,0.00
2018-02-22T21:07:34.874Z,0.00
2018-02-22T21:10:05.072Z,0.00
2018-02-22T21:12:35.400Z,0.00
2018-02-22T21:15:05.523Z,-0.10
2018-02-22T21:17:35.759Z,-0.10
2018-02-22T21:20:05.517Z,-0.10
2018-02-22T21:22:35.367Z,0.00
2018-02-22T21:25:05.936Z,0.00
2018-02-22T21:27:36.436Z,0.00
2018-02-22T21:30:07.142Z,0.00
2018-02-22T21:32:37.626Z,0.00
2018-02-22T21:35:08.150Z,0.00
2018-02-22T21:37:38.604Z,0.00
2018-02-22T21:40:09.028Z,0.00
2018-02-22T21:42:39.716Z,0.00
2018-02-22T21:45:10.151Z,0.00
2018-02-22T21:47:40.652Z,0.00
2018-02-22T21:50:11.036Z,0.00
2018-02-22T21:52:41.671Z,0.00
2018-02-22T21:55:12.132Z,0.00
2018-02-22T21:57:42.685Z,0.00
2018-02-22T22:00:13.195Z,0.00
2018-02-22T22:02:43.974Z,0.00
2018-02-22T22:05:14.354Z,-0.10
2018-02-22T22:07:44.801Z,-0.10
2018-02-22T22:10:15.912Z,-0.10
2018-02-22T22:12:46.552Z,-0.20
2018-02-22T22:15:17.295Z,-0.10
2018-02-22T22:17:47.786Z,-0.10
2018-02-22T22:20:18.305Z,-0.10
2018-02-22T22:22:48.734Z,-0.10
2018-02-22T22:25:19.208Z,-0.20
2018-02-22T22:27:49.509Z,-0.20
2018-02-22T22:30:19.655Z,-0.20
2018-02-22T22:32:51.410Z,-0.30
2018-02-22T22:35:23.589Z,-0.20
2018-02-22T22:37:54.934Z,0.10
2018-02-22T22:40:26.071Z,-0.20
2018-02-22T22:42:57.945Z,-0.20
2018-02-22T22:45:28.778Z,-0.60
2018-02-22T22:47:59.470Z,-0.30
2018-02-22T22:50:29.975Z,-0.40
2018-02-22T22:53:00.701Z,-0.40
2018-02-22T22:55:31.172Z,-0.40
2018-02-22T22:58:01.414Z,-0.50
2018-02-22T23:00:32.458Z,-0.50
2018-02-22T23:03:02.568Z,-0.50
2018-02-22T23:05:32.769Z,-0.60
2018-02-22T23:08:03.432Z,-0.70
2018-02-22T23:10:33.849Z,-0.70
2018-02-22T23:13:04.174Z,-0.80
2018-02-22T23:15:34.597Z,-1.00
2018-02-22T23:18:05.105Z,-1.00
2018-02-22T23:20:35.451Z,-1.10
2018-02-22T23:23:05.916Z,-1.20
2018-02-22T23:25:36.164Z,-1.30
2018-02-22T23:28:06.790Z,-1.30
2018-02-22T23:30:37.035Z,-1.40
2018-02-22T23:33:08.177Z,-1.40
2018-02-22T23:35:38.090Z,-1.40
2018-02-22T23:38:07.807Z,-1.50
2018-02-22T23:43:46.778Z,-1.60
2018-02-22T23:46:17.282Z,-1.70
2018-02-22T23:48:47.593Z,-1.70
2018-02-22T23:51:18.411Z,-1.70
2018-02-22T23:53:49.072Z,-1.70
2018-02-22T23:56:19.753Z,-1.80
2018-02-22T23:58:50.362Z,-1.80
